sensor_id;sensor_type;location;lat;lon;timestamp;P1;durP1;ratioP1;P2;durP2;ratioP2
4422;SDS011;2224;49.814;8.650;2023-02-15T00:00:04;33.47;;;19.73;;
4422;SDS011;2224;49.814;8.650;2023-02-15T00:02:30;29.88;;;19.88;;
4422;SDS011;2224;49.814;8.650;2023-02-15T00:04:56;30.90;;;19.87;;
4422;SDS011;2224;49.814;8.650;2023-02-15T00:07:21;28.53;;;18.37;;
4422;SDS011;2224;49.814;8.650;2023-02-15T00:09:47;36.57;;;21.83;;
4422;SDS011;2224;49.814;8.650;2023-02-15T00:12:12;34.63;;;20.33;;
4422;SDS011;2224;49.814;8.650;2023-02-15T00:14:38;31.80;;;19.67;;
4422;SDS011;2224;49.814;8.650;2023-02-15T00:17:03;28.93;;;19.77;;
4422;SDS011;2224;49.814;8.650;2023-02-15T00:19:29;29.47;;;19.77;;
4422;SDS011;2224;49.814;8.650;2023-02-15T00:21:54;31.93;;;20.33;;
4422;SDS011;2224;49.814;8.650;2023-02-15T00:24:20;33.73;;;20.90;;
4422;SDS011;2224;49.814;8.650;2023-02-15T00:26:46;31.80;;;20.30;;
4422;SDS011;2224;49.814;8.650;2023-02-15T00:29:12;33.78;;;21.20;;
4422;SDS011;2224;49.814;8.650;2023-02-15T00:31:38;32.63;;;22.20;;
4422;SDS011;2224;49.814;8.650;2023-02-15T00:34:04;30.30;;;19.23;;
4422;SDS011;2224;49.814;8.650;2023-02-15T00:36:31;31.70;;;20.73;;
4422;SDS011;2224;49.814;8.650;2023-02-15T00:38:57;27.80;;;18.17;;
4422;SDS011;2224;49.814;8.650;2023-02-15T00:41:23;32.47;;;20.20;;
4422;SDS011;2224;49.814;8.650;2023-02-15T00:43:48;27.53;;;18.00;;
4422;SDS011;2224;49.814;8.650;2023-02-15T00:46:13;29.57;;;19.03;;
4422;SDS011;2224;49.814;8.650;2023-02-15T00:48:39;33.97;;;20.83;;
4422;SDS011;2224;49.814;8.650;2023-02-15T00:51:04;28.03;;;18.67;;
4422;SDS011;2224;49.814;8.650;2023-02-15T00:53:29;32.40;;;21.63;;
4422;SDS011;2224;49.814;8.650;2023-02-15T00:55:55;31.90;;;20.63;;
4422;SDS011;2224;49.814;8.650;2023-02-15T00:58:21;28.13;;;20.52;;
4422;SDS011;2224;49.814;8.650;2023-02-15T01:00:47;31.97;;;21.03;;
4422;SDS011;2224;49.814;8.650;2023-02-15T01:03:13;32.47;;;20.13;;
4422;SDS011;2224;49.814;8.650;2023-02-15T01:05:39;30.10;;;18.98;;
4422;SDS011;2224;49.814;8.650;2023-02-15T01:08:05;29.70;;;19.50;;
4422;SDS011;2224;49.814;8.650;2023-02-15T01:10:30;29.40;;;19.00;;
4422;SDS011;2224;49.814;8.650;2023-02-15T01:12:56;29.00;;;18.17;;
4422;SDS011;2224;49.814;8.650;2023-02-15T01:15:21;31.73;;;21.30;;
4422;SDS011;2224;49.814;8.650;2023-02-15T01:17:47;29.20;;;19.30;;
4422;SDS011;2224;49.814;8.650;2023-02-15T01:20:18;27.00;;;19.15;;
4422;SDS011;2224;49.814;8.650;2023-02-15T01:22:44;29.85;;;18.20;;
4422;SDS011;2224;49.814;8.650;2023-02-15T01:25:10;28.13;;;18.13;;
4422;SDS011;2224;49.814;8.650;2023-02-15T01:27:35;30.93;;;19.23;;
4422;SDS011;2224;49.814;8.650;2023-02-15T01:30:00;28.70;;;19.10;;
4422;SDS011;2224;49.814;8.650;2023-02-15T01:32:26;28.17;;;18.97;;
4422;SDS011;2224;49.814;8.650;2023-02-15T01:34:51;28.00;;;19.67;;
4422;SDS011;2224;49.814;8.650;2023-02-15T01:37:17;28.30;;;18.93;;
4422;SDS011;2224;49.814;8.650;2023-02-15T01:39:42;28.70;;;17.97;;
4422;SDS011;2224;49.814;8.650;2023-02-15T01:42:11;30.67;;;19.63;;
4422;SDS011;2224;49.814;8.650;2023-02-15T01:47:08;27.77;;;18.48;;
4422;SDS011;2224;49.814;8.650;2023-02-15T01:49:35;29.00;;;18.83;;
4422;SDS011;2224;49.814;8.650;2023-02-15T01:52:00;30.77;;;19.97;;
4422;SDS011;2224;49.814;8.650;2023-02-15T01:54:32;28.63;;;18.47;;
4422;SDS011;2224;49.814;8.650;2023-02-15T01:57:02;32.55;;;20.58;;
4422;SDS011;2224;49.814;8.650;2023-02-15T01:59:28;30.38;;;19.88;;
4422;SDS011;2224;49.814;8.650;2023-02-15T02:01:55;28.20;;;19.27;;
4422;SDS011;2224;49.814;8.650;2023-02-15T02:04:31;30.33;;;19.40;;
4422;SDS011;2224;49.814;8.650;2023-02-15T02:07:00;30.17;;;18.30;;
4422;SDS011;2224;49.814;8.650;2023-02-15T02:09:27;29.23;;;19.42;;
4422;SDS011;2224;49.814;8.650;2023-02-15T02:11:52;31.10;;;19.30;;
4422;SDS011;2224;49.814;8.650;2023-02-15T02:14:19;28.17;;;19.23;;
4422;SDS011;2224;49.814;8.650;2023-02-15T02:16:57;29.47;;;19.50;;
4422;SDS011;2224;49.814;8.650;2023-02-15T02:34:15;29.60;;;19.35;;
4422;SDS011;2224;49.814;8.650;2023-02-15T02:37:18;27.45;;;17.98;;
4422;SDS011;2224;49.814;8.650;2023-02-15T02:45:09;32.90;;;19.70;;
4422;SDS011;2224;49.814;8.650;2023-02-15T02:47:48;34.17;;;19.85;;
4422;SDS011;2224;49.814;8.650;2023-02-15T02:50:20;30.95;;;19.90;;
4422;SDS011;2224;49.814;8.650;2023-02-15T02:52:48;35.08;;;19.98;;
4422;SDS011;2224;49.814;8.650;2023-02-15T02:57:55;33.92;;;21.02;;
4422;SDS011;2224;49.814;8.650;2023-02-15T03:00:23;34.72;;;20.60;;
4422;SDS011;2224;49.814;8.650;2023-02-15T03:02:51;34.80;;;21.60;;
4422;SDS011;2224;49.814;8.650;2023-02-15T03:05:20;36.78;;;21.63;;
4422;SDS011;2224;49.814;8.650;2023-02-15T03:07:49;31.55;;;20.60;;
4422;SDS011;2224;49.814;8.650;2023-02-15T03:10:16;39.40;;;22.58;;
4422;SDS011;2224;49.814;8.650;2023-02-15T03:12:43;35.58;;;21.52;;
4422;SDS011;2224;49.814;8.650;2023-02-15T03:15:16;36.07;;;22.30;;
4422;SDS011;2224;49.814;8.650;2023-02-15T03:17:46;40.22;;;22.73;;
4422;SDS011;2224;49.814;8.650;2023-02-15T03:20:32;35.58;;;22.73;;
4422;SDS011;2224;49.814;8.650;2023-02-15T03:22:59;47.10;;;21.80;;
4422;SDS011;2224;49.814;8.650;2023-02-15T03:25:34;44.25;;;22.77;;
4422;SDS011;2224;49.814;8.650;2023-02-15T03:28:04;37.88;;;23.10;;
4422;SDS011;2224;49.814;8.650;2023-02-15T03:30:32;39.28;;;22.77;;
4422;SDS011;2224;49.814;8.650;2023-02-15T03:32:59;37.95;;;20.48;;
4422;SDS011;2224;49.814;8.650;2023-02-15T03:35:25;47.73;;;24.33;;
4422;SDS011;2224;49.814;8.650;2023-02-15T03:38:00;41.08;;;23.13;;
4422;SDS011;2224;49.814;8.650;2023-02-15T03:40:43;49.17;;;24.58;;
4422;SDS011;2224;49.814;8.650;2023-02-15T03:43:33;40.63;;;23.27;;
4422;SDS011;2224;49.814;8.650;2023-02-15T03:48:44;43.63;;;22.98;;
4422;SDS011;2224;49.814;8.650;2023-02-15T03:51:16;46.08;;;24.88;;
4422;SDS011;2224;49.814;8.650;2023-02-15T03:54:12;44.95;;;23.20;;
4422;SDS011;2224;49.814;8.650;2023-02-15T03:56:59;59.53;;;24.17;;
4422;SDS011;2224;49.814;8.650;2023-02-15T03:59:44;45.20;;;24.40;;
4422;SDS011;2224;49.814;8.650;2023-02-15T04:02:29;44.42;;;23.40;;
4422;SDS011;2224;49.814;8.650;2023-02-15T04:05:03;41.28;;;20.90;;
4422;SDS011;2224;49.814;8.650;2023-02-15T04:07:29;44.43;;;23.60;;
4422;SDS011;2224;49.814;8.650;2023-02-15T04:09:54;41.50;;;21.90;;
4422;SDS011;2224;49.814;8.650;2023-02-15T04:12:38;59.80;;;23.38;;
4422;SDS011;2224;49.814;8.650;2023-02-15T04:15:03;49.27;;;22.30;;
4422;SDS011;2224;49.814;8.650;2023-02-15T04:17:48;51.47;;;24.15;;
4422;SDS011;2224;49.814;8.650;2023-02-15T04:20:13;35.20;;;19.87;;
4422;SDS011;2224;49.814;8.650;2023-02-15T04:22:57;40.42;;;22.63;;
4422;SDS011;2224;49.814;8.650;2023-02-15T04:25:41;39.40;;;20.92;;
4422;SDS011;2224;49.814;8.650;2023-02-15T04:28:06;38.90;;;21.20;;
4422;SDS011;2224;49.814;8.650;2023-02-15T04:30:32;36.50;;;22.30;;
4422;SDS011;2224;49.814;8.650;2023-02-15T04:32:57;34.63;;;20.57;;
4422;SDS011;2224;49.814;8.650;2023-02-15T04:35:23;42.33;;;21.13;;
4422;SDS011;2224;49.814;8.650;2023-02-15T04:37:48;38.13;;;21.30;;
4422;SDS011;2224;49.814;8.650;2023-02-15T04:40:14;43.10;;;21.30;;
4422;SDS011;2224;49.814;8.650;2023-02-15T04:42:40;37.00;;;22.00;;
4422;SDS011;2224;49.814;8.650;2023-02-15T04:45:05;66.53;;;25.67;;
4422;SDS011;2224;49.814;8.650;2023-02-15T04:47:31;39.40;;;22.30;;
4422;SDS011;2224;49.814;8.650;2023-02-15T04:49:57;38.37;;;21.57;;
4422;SDS011;2224;49.814;8.650;2023-02-15T04:52:22;38.37;;;22.23;;
4422;SDS011;2224;49.814;8.650;2023-02-15T04:54:47;42.67;;;21.93;;
4422;SDS011;2224;49.814;8.650;2023-02-15T04:57:13;45.00;;;23.73;;
4422;SDS011;2224;49.814;8.650;2023-02-15T04:59:38;38.97;;;20.83;;
4422;SDS011;2224;49.814;8.650;2023-02-15T05:02:03;42.70;;;20.30;;
4422;SDS011;2224;49.814;8.650;2023-02-15T05:04:29;42.10;;;22.40;;
4422;SDS011;2224;49.814;8.650;2023-02-15T05:06:54;37.87;;;20.57;;
4422;SDS011;2224;49.814;8.650;2023-02-15T05:09:19;48.53;;;23.17;;
4422;SDS011;2224;49.814;8.650;2023-02-15T05:11:45;38.03;;;19.40;;
4422;SDS011;2224;49.814;8.650;2023-02-15T05:14:10;37.73;;;21.50;;
4422;SDS011;2224;49.814;8.650;2023-02-15T05:16:36;38.33;;;20.40;;
4422;SDS011;2224;49.814;8.650;2023-02-15T05:19:01;48.57;;;22.97;;
4422;SDS011;2224;49.814;8.650;2023-02-15T05:21:27;63.53;;;23.40;;
4422;SDS011;2224;49.814;8.650;2023-02-15T05:23:52;49.23;;;23.30;;
4422;SDS011;2224;49.814;8.650;2023-02-15T05:26:19;48.53;;;24.00;;
4422;SDS011;2224;49.814;8.650;2023-02-15T05:29:04;50.60;;;24.60;;
4422;SDS011;2224;49.814;8.650;2023-02-15T05:31:30;35.77;;;20.53;;
4422;SDS011;2224;49.814;8.650;2023-02-15T05:33:56;73.47;;;26.43;;
4422;SDS011;2224;49.814;8.650;2023-02-15T05:36:21;41.47;;;20.67;;
4422;SDS011;2224;49.814;8.650;2023-02-15T05:38:46;57.17;;;25.57;;
4422;SDS011;2224;49.814;8.650;2023-02-15T05:41:11;54.27;;;23.47;;
4422;SDS011;2224;49.814;8.650;2023-02-15T05:43:37;43.77;;;23.20;;
4422;SDS011;2224;49.814;8.650;2023-02-15T05:46:03;55.13;;;24.77;;
4422;SDS011;2224;49.814;8.650;2023-02-15T05:48:29;49.80;;;25.30;;
4422;SDS011;2224;49.814;8.650;2023-02-15T05:51:04;47.40;;;22.17;;
4422;SDS011;2224;49.814;8.650;2023-02-15T05:53:35;43.05;;;23.15;;
4422;SDS011;2224;49.814;8.650;2023-02-15T05:56:02;43.30;;;22.55;;
4422;SDS011;2224;49.814;8.650;2023-02-15T05:58:31;40.13;;;22.00;;
4422;SDS011;2224;49.814;8.650;2023-02-15T06:00:58;41.00;;;21.15;;
4422;SDS011;2224;49.814;8.650;2023-02-15T06:03:24;42.10;;;21.50;;
4422;SDS011;2224;49.814;8.650;2023-02-15T06:05:50;37.63;;;21.00;;
4422;SDS011;2224;49.814;8.650;2023-02-15T06:08:16;34.20;;;21.20;;
4422;SDS011;2224;49.814;8.650;2023-02-15T06:10:41;39.50;;;21.10;;
4422;SDS011;2224;49.814;8.650;2023-02-15T06:13:07;38.60;;;19.93;;
4422;SDS011;2224;49.814;8.650;2023-02-15T06:15:32;35.07;;;18.60;;
4422;SDS011;2224;49.814;8.650;2023-02-15T06:17:57;34.47;;;20.00;;
4422;SDS011;2224;49.814;8.650;2023-02-15T06:20:23;31.07;;;19.37;;
4422;SDS011;2224;49.814;8.650;2023-02-15T06:22:48;33.30;;;19.40;;
4422;SDS011;2224;49.814;8.650;2023-02-15T06:25:14;29.17;;;18.47;;
4422;SDS011;2224;49.814;8.650;2023-02-15T06:27:40;42.23;;;20.40;;
4422;SDS011;2224;49.814;8.650;2023-02-15T06:30:07;43.42;;;19.30;;
4422;SDS011;2224;49.814;8.650;2023-02-15T06:32:33;37.45;;;19.73;;
4422;SDS011;2224;49.814;8.650;2023-02-15T06:34:58;37.73;;;21.23;;
4422;SDS011;2224;49.814;8.650;2023-02-15T06:37:24;37.67;;;20.30;;
4422;SDS011;2224;49.814;8.650;2023-02-15T06:39:49;39.27;;;19.80;;
4422;SDS011;2224;49.814;8.650;2023-02-15T06:42:14;36.00;;;21.80;;
4422;SDS011;2224;49.814;8.650;2023-02-15T06:44:40;36.50;;;20.07;;
4422;SDS011;2224;49.814;8.650;2023-02-15T06:47:05;35.93;;;20.80;;
4422;SDS011;2224;49.814;8.650;2023-02-15T06:49:30;30.80;;;17.83;;
4422;SDS011;2224;49.814;8.650;2023-02-15T06:51:56;30.70;;;17.80;;
4422;SDS011;2224;49.814;8.650;2023-02-15T06:54:21;31.57;;;17.70;;
4422;SDS011;2224;49.814;8.650;2023-02-15T06:56:46;35.37;;;19.33;;
4422;SDS011;2224;49.814;8.650;2023-02-15T06:59:12;43.63;;;22.40;;
4422;SDS011;2224;49.814;8.650;2023-02-15T07:01:37;41.20;;;21.83;;
4422;SDS011;2224;49.814;8.650;2023-02-15T07:04:02;41.70;;;20.93;;
4422;SDS011;2224;49.814;8.650;2023-02-15T07:06:31;43.57;;;22.63;;
4422;SDS011;2224;49.814;8.650;2023-02-15T07:08:58;45.53;;;22.58;;
4422;SDS011;2224;49.814;8.650;2023-02-15T07:11:23;41.20;;;20.67;;
4422;SDS011;2224;49.814;8.650;2023-02-15T07:14:07;38.42;;;21.40;;
4422;SDS011;2224;49.814;8.650;2023-02-15T07:16:32;44.77;;;21.53;;
4422;SDS011;2224;49.814;8.650;2023-02-15T07:18:57;44.53;;;23.40;;
4422;SDS011;2224;49.814;8.650;2023-02-15T07:21:23;37.53;;;20.97;;
4422;SDS011;2224;49.814;8.650;2023-02-15T07:23:48;43.43;;;21.60;;
4422;SDS011;2224;49.814;8.650;2023-02-15T07:26:13;40.47;;;22.00;;
4422;SDS011;2224;49.814;8.650;2023-02-15T07:28:38;42.67;;;23.70;;
4422;SDS011;2224;49.814;8.650;2023-02-15T07:31:04;37.57;;;20.93;;
4422;SDS011;2224;49.814;8.650;2023-02-15T07:33:30;35.20;;;19.93;;
4422;SDS011;2224;49.814;8.650;2023-02-15T07:35:57;54.75;;;23.70;;
4422;SDS011;2224;49.814;8.650;2023-02-15T07:38:24;49.03;;;24.27;;
4422;SDS011;2224;49.814;8.650;2023-02-15T07:40:51;47.95;;;24.20;;
4422;SDS011;2224;49.814;8.650;2023-02-15T07:43:16;50.70;;;23.43;;
4422;SDS011;2224;49.814;8.650;2023-02-15T07:45:41;42.47;;;23.00;;
4422;SDS011;2224;49.814;8.650;2023-02-15T07:48:07;52.27;;;27.00;;
4422;SDS011;2224;49.814;8.650;2023-02-15T07:50:32;47.07;;;24.00;;
4422;SDS011;2224;49.814;8.650;2023-02-15T07:52:58;57.90;;;25.20;;
4422;SDS011;2224;49.814;8.650;2023-02-15T07:55:23;56.47;;;26.13;;
4422;SDS011;2224;49.814;8.650;2023-02-15T07:57:49;42.50;;;23.20;;
4422;SDS011;2224;49.814;8.650;2023-02-15T08:00:16;47.53;;;25.42;;
4422;SDS011;2224;49.814;8.650;2023-02-15T08:02:47;54.42;;;24.55;;
4422;SDS011;2224;49.814;8.650;2023-02-15T08:05:13;42.78;;;22.00;;
4422;SDS011;2224;49.814;8.650;2023-02-15T08:07:39;60.03;;;26.80;;
4422;SDS011;2224;49.814;8.650;2023-02-15T08:10:04;41.53;;;24.43;;
4422;SDS011;2224;49.814;8.650;2023-02-15T08:12:30;50.03;;;23.60;;
4422;SDS011;2224;49.814;8.650;2023-02-15T08:14:55;62.93;;;27.93;;
4422;SDS011;2224;49.814;8.650;2023-02-15T08:17:20;56.33;;;26.67;;
4422;SDS011;2224;49.814;8.650;2023-02-15T08:19:46;44.10;;;23.97;;
4422;SDS011;2224;49.814;8.650;2023-02-15T08:22:12;49.40;;;24.53;;
4422;SDS011;2224;49.814;8.650;2023-02-15T08:24:39;44.63;;;21.58;;
4422;SDS011;2224;49.814;8.650;2023-02-15T08:27:05;48.08;;;23.75;;
4422;SDS011;2224;49.814;8.650;2023-02-15T08:29:32;45.63;;;23.08;;
4422;SDS011;2224;49.814;8.650;2023-02-15T08:32:00;49.88;;;24.10;;
4422;SDS011;2224;49.814;8.650;2023-02-15T08:34:28;49.55;;;24.73;;
4422;SDS011;2224;49.814;8.650;2023-02-15T08:36:54;59.63;;;26.08;;
4422;SDS011;2224;49.814;8.650;2023-02-15T08:39:20;58.03;;;24.35;;
4422;SDS011;2224;49.814;8.650;2023-02-15T08:41:46;66.33;;;27.90;;
4422;SDS011;2224;49.814;8.650;2023-02-15T08:44:12;53.30;;;27.13;;
4422;SDS011;2224;49.814;8.650;2023-02-15T08:46:40;47.78;;;24.35;;
4422;SDS011;2224;49.814;8.650;2023-02-15T08:49:08;53.88;;;26.02;;
4422;SDS011;2224;49.814;8.650;2023-02-15T08:51:35;49.58;;;23.80;;
4422;SDS011;2224;49.814;8.650;2023-02-15T08:54:03;47.50;;;23.30;;
4422;SDS011;2224;49.814;8.650;2023-02-15T08:56:31;53.03;;;25.02;;
4422;SDS011;2224;49.814;8.650;2023-02-15T08:58:58;54.58;;;24.70;;
4422;SDS011;2224;49.814;8.650;2023-02-15T09:01:24;48.93;;;25.00;;
4422;SDS011;2224;49.814;8.650;2023-02-15T09:03:54;43.72;;;22.67;;
4422;SDS011;2224;49.814;8.650;2023-02-15T09:06:21;53.08;;;25.08;;
4422;SDS011;2224;49.814;8.650;2023-02-15T09:08:47;51.95;;;23.45;;
4422;SDS011;2224;49.814;8.650;2023-02-15T09:13:58;46.25;;;22.90;;
4422;SDS011;2224;49.814;8.650;2023-02-15T09:16:26;50.20;;;25.33;;
4422;SDS011;2224;49.814;8.650;2023-02-15T09:18:53;58.33;;;25.60;;
4422;SDS011;2224;49.814;8.650;2023-02-15T09:21:20;53.83;;;24.30;;
4422;SDS011;2224;49.814;8.650;2023-02-15T09:23:47;54.30;;;23.50;;
4422;SDS011;2224;49.814;8.650;2023-02-15T09:26:15;54.42;;;25.40;;
4422;SDS011;2224;49.814;8.650;2023-02-15T09:28:42;50.67;;;26.58;;
4422;SDS011;2224;49.814;8.650;2023-02-15T09:31:09;57.70;;;26.63;;
4422;SDS011;2224;49.814;8.650;2023-02-15T09:33:40;52.90;;;27.60;;
4422;SDS011;2224;49.814;8.650;2023-02-15T09:36:12;58.80;;;27.80;;
4422;SDS011;2224;49.814;8.650;2023-02-15T09:38:39;62.80;;;27.38;;
4422;SDS011;2224;49.814;8.650;2023-02-15T09:46:44;54.15;;;24.35;;
4422;SDS011;2224;49.814;8.650;2023-02-15T09:52:11;55.60;;;27.27;;
4422;SDS011;2224;49.814;8.650;2023-02-15T09:57:10;59.83;;;29.98;;
4422;SDS011;2224;49.814;8.650;2023-02-15T10:05:33;65.82;;;28.75;;
4422;SDS011;2224;49.814;8.650;2023-02-15T10:13:20;45.60;;;26.30;;
4422;SDS011;2224;49.814;8.650;2023-02-15T10:21:50;55.35;;;27.30;;
4422;SDS011;2224;49.814;8.650;2023-02-15T10:26:51;45.67;;;24.92;;
4422;SDS011;2224;49.814;8.650;2023-02-15T10:29:36;46.88;;;25.63;;
4422;SDS011;2224;49.814;8.650;2023-02-15T10:38:09;53.72;;;27.40;;
4422;SDS011;2224;49.814;8.650;2023-02-15T10:40:25;49.53;;;26.13;;
4422;SDS011;2224;49.814;8.650;2023-02-15T10:43:20;46.58;;;25.58;;
4422;SDS011;2224;49.814;8.650;2023-02-15T10:55:02;57.60;;;26.65;;
4422;SDS011;2224;49.814;8.650;2023-02-15T10:57:40;45.50;;;25.80;;
4422;SDS011;2224;49.814;8.650;2023-02-15T11:08:15;47.80;;;27.80;;
4422;SDS011;2224;49.814;8.650;2023-02-15T11:10:48;60.63;;;29.05;;
4422;SDS011;2224;49.814;8.650;2023-02-15T11:13:17;52.83;;;28.25;;
4422;SDS011;2224;49.814;8.650;2023-02-15T11:15:50;57.03;;;28.92;;
4422;SDS011;2224;49.814;8.650;2023-02-15T11:23:18;54.13;;;28.67;;
4422;SDS011;2224;49.814;8.650;2023-02-15T11:25:45;60.03;;;28.15;;
4422;SDS011;2224;49.814;8.650;2023-02-15T11:28:22;57.30;;;30.05;;
4422;SDS011;2224;49.814;8.650;2023-02-15T11:31:01;56.63;;;27.50;;
4422;SDS011;2224;49.814;8.650;2023-02-15T11:33:36;57.65;;;29.10;;
4422;SDS011;2224;49.814;8.650;2023-02-15T11:36:09;57.35;;;30.10;;
4422;SDS011;2224;49.814;8.650;2023-02-15T11:38:38;57.20;;;28.75;;
4422;SDS011;2224;49.814;8.650;2023-02-15T11:41:12;55.13;;;27.77;;
4422;SDS011;2224;49.814;8.650;2023-02-15T11:43:48;55.67;;;28.92;;
4422;SDS011;2224;49.814;8.650;2023-02-15T11:46:16;51.65;;;27.25;;
4422;SDS011;2224;49.814;8.650;2023-02-15T11:48:43;58.60;;;29.25;;
4422;SDS011;2224;49.814;8.650;2023-02-15T11:51:09;58.57;;;29.23;;
4422;SDS011;2224;49.814;8.650;2023-02-15T11:53:38;65.60;;;30.58;;
4422;SDS011;2224;49.814;8.650;2023-02-15T11:56:03;69.33;;;32.80;;
4422;SDS011;2224;49.814;8.650;2023-02-15T11:58:41;61.60;;;30.35;;
4422;SDS011;2224;49.814;8.650;2023-02-15T12:01:32;57.88;;;29.40;;
4422;SDS011;2224;49.814;8.650;2023-02-15T12:04:07;63.75;;;30.70;;
4422;SDS011;2224;49.814;8.650;2023-02-15T12:06:38;60.53;;;32.05;;
4422;SDS011;2224;49.814;8.650;2023-02-15T12:09:27;61.83;;;30.10;;
4422;SDS011;2224;49.814;8.650;2023-02-15T12:14:47;58.30;;;31.40;;
4422;SDS011;2224;49.814;8.650;2023-02-15T12:17:13;64.38;;;32.03;;
4422;SDS011;2224;49.814;8.650;2023-02-15T12:19:40;57.05;;;30.20;;
4422;SDS011;2224;49.814;8.650;2023-02-15T12:22:05;62.77;;;31.67;;
4422;SDS011;2224;49.814;8.650;2023-02-15T12:24:35;56.03;;;30.90;;
4422;SDS011;2224;49.814;8.650;2023-02-15T12:29:41;60.13;;;33.00;;
4422;SDS011;2224;49.814;8.650;2023-02-15T12:32:16;56.72;;;30.50;;
4422;SDS011;2224;49.814;8.650;2023-02-15T12:34:43;58.88;;;31.05;;
4422;SDS011;2224;49.814;8.650;2023-02-15T12:37:24;61.10;;;30.98;;
4422;SDS011;2224;49.814;8.650;2023-02-15T12:39:53;54.75;;;30.80;;
4422;SDS011;2224;49.814;8.650;2023-02-15T12:42:25;58.67;;;30.45;;
4422;SDS011;2224;49.814;8.650;2023-02-15T12:44:59;62.83;;;33.55;;
4422;SDS011;2224;49.814;8.650;2023-02-15T12:47:26;54.47;;;28.98;;
4422;SDS011;2224;49.814;8.650;2023-02-15T12:50:13;62.15;;;31.88;;
4422;SDS011;2224;49.814;8.650;2023-02-15T12:52:48;63.45;;;34.03;;
4422;SDS011;2224;49.814;8.650;2023-02-15T12:55:25;56.33;;;30.02;;
4422;SDS011;2224;49.814;8.650;2023-02-15T13:00:43;63.03;;;31.88;;
4422;SDS011;2224;49.814;8.650;2023-02-15T13:03:17;54.70;;;30.38;;
4422;SDS011;2224;49.814;8.650;2023-02-15T13:05:44;52.50;;;28.42;;
4422;SDS011;2224;49.814;8.650;2023-02-15T13:08:15;50.55;;;27.83;;
4422;SDS011;2224;49.814;8.650;2023-02-15T13:10:53;52.60;;;31.27;;
4422;SDS011;2224;49.814;8.650;2023-02-15T13:13:20;54.60;;;30.45;;
4422;SDS011;2224;49.814;8.650;2023-02-15T13:15:48;50.35;;;29.38;;
4422;SDS011;2224;49.814;8.650;2023-02-15T13:21:04;60.72;;;30.15;;
4422;SDS011;2224;49.814;8.650;2023-02-15T13:23:35;55.58;;;29.70;;
4422;SDS011;2224;49.814;8.650;2023-02-15T13:26:02;52.33;;;28.23;;
4422;SDS011;2224;49.814;8.650;2023-02-15T13:28:36;49.95;;;26.92;;
4422;SDS011;2224;49.814;8.650;2023-02-15T13:31:04;50.05;;;26.60;;
4422;SDS011;2224;49.814;8.650;2023-02-15T13:33:37;48.60;;;27.90;;
4422;SDS011;2224;49.814;8.650;2023-02-15T13:36:10;44.95;;;25.30;;
4422;SDS011;2224;49.814;8.650;2023-02-15T13:38:56;51.30;;;28.60;;
4422;SDS011;2224;49.814;8.650;2023-02-15T13:41:29;55.00;;;27.20;;
4422;SDS011;2224;49.814;8.650;2023-02-15T13:44:07;49.10;;;27.48;;
4422;SDS011;2224;49.814;8.650;2023-02-15T13:46:45;43.70;;;26.80;;
4422;SDS011;2224;49.814;8.650;2023-02-15T13:51:47;47.22;;;27.00;;
4422;SDS011;2224;49.814;8.650;2023-02-15T13:54:27;47.15;;;27.92;;
4422;SDS011;2224;49.814;8.650;2023-02-15T13:57:01;47.72;;;28.25;;
4422;SDS011;2224;49.814;8.650;2023-02-15T14:00:12;51.50;;;28.30;;
4422;SDS011;2224;49.814;8.650;2023-02-15T14:15:55;47.77;;;28.73;;
4422;SDS011;2224;49.814;8.650;2023-02-15T14:18:37;49.83;;;29.60;;
4422;SDS011;2224;49.814;8.650;2023-02-15T14:23:42;50.07;;;29.93;;
4422;SDS011;2224;49.814;8.650;2023-02-15T14:29:06;52.17;;;29.90;;
4422;SDS011;2224;49.814;8.650;2023-02-15T14:31:55;56.45;;;32.35;;
4422;SDS011;2224;49.814;8.650;2023-02-15T14:34:24;52.07;;;30.40;;
4422;SDS011;2224;49.814;8.650;2023-02-15T14:36:55;49.97;;;30.87;;
4422;SDS011;2224;49.814;8.650;2023-02-15T14:39:26;49.27;;;29.20;;
4422;SDS011;2224;49.814;8.650;2023-02-15T14:42:58;49.80;;;30.40;;
4422;SDS011;2224;49.814;8.650;2023-02-15T14:45:06;52.57;;;31.53;;
4422;SDS011;2224;49.814;8.650;2023-02-15T14:47:42;52.95;;;31.80;;
4422;SDS011;2224;49.814;8.650;2023-02-15T14:53:15;51.17;;;30.83;;
4422;SDS011;2224;49.814;8.650;2023-02-15T14:55:41;56.45;;;31.60;;
4422;SDS011;2224;49.814;8.650;2023-02-15T14:58:12;56.30;;;32.83;;
4422;SDS011;2224;49.814;8.650;2023-02-15T15:00:39;50.10;;;30.98;;
4422;SDS011;2224;49.814;8.650;2023-02-15T15:03:12;54.73;;;32.90;;
4422;SDS011;2224;49.814;8.650;2023-02-15T15:05:49;52.70;;;31.53;;
4422;SDS011;2224;49.814;8.650;2023-02-15T15:08:25;59.73;;;32.70;;
4422;SDS011;2224;49.814;8.650;2023-02-15T15:12:02;58.13;;;35.47;;
4422;SDS011;2224;49.814;8.650;2023-02-15T15:13:57;51.47;;;32.40;;
4422;SDS011;2224;49.814;8.650;2023-02-15T15:16:27;52.42;;;31.75;;
4422;SDS011;2224;49.814;8.650;2023-02-15T15:18:54;51.10;;;31.63;;
4422;SDS011;2224;49.814;8.650;2023-02-15T15:32:47;51.50;;;31.00;;
4422;SDS011;2224;49.814;8.650;2023-02-15T15:48:42;52.00;;;31.42;;
4422;SDS011;2224;49.814;8.650;2023-02-15T15:51:20;56.30;;;34.90;;
4422;SDS011;2224;49.814;8.650;2023-02-15T15:53:55;58.08;;;33.17;;
4422;SDS011;2224;49.814;8.650;2023-02-15T15:56:29;53.85;;;30.35;;
4422;SDS011;2224;49.814;8.650;2023-02-15T15:58:57;54.63;;;33.00;;
4422;SDS011;2224;49.814;8.650;2023-02-15T16:01:29;52.00;;;32.55;;
4422;SDS011;2224;49.814;8.650;2023-02-15T16:03:57;53.00;;;33.25;;
4422;SDS011;2224;49.814;8.650;2023-02-15T16:06:34;58.88;;;33.17;;
4422;SDS011;2224;49.814;8.650;2023-02-15T16:11:42;55.42;;;34.13;;
4422;SDS011;2224;49.814;8.650;2023-02-15T16:16:55;57.42;;;33.10;;
4422;SDS011;2224;49.814;8.650;2023-02-15T16:19:24;57.30;;;32.70;;
4422;SDS011;2224;49.814;8.650;2023-02-15T16:21:54;56.67;;;32.55;;
4422;SDS011;2224;49.814;8.650;2023-02-15T16:29:32;60.42;;;33.63;;
4422;SDS011;2224;49.814;8.650;2023-02-15T16:32:02;64.95;;;35.72;;
4422;SDS011;2224;49.814;8.650;2023-02-15T16:34:30;66.28;;;37.95;;
4422;SDS011;2224;49.814;8.650;2023-02-15T16:37:13;60.85;;;35.47;;
4422;SDS011;2224;49.814;8.650;2023-02-15T16:39:40;65.53;;;36.90;;
4422;SDS011;2224;49.814;8.650;2023-02-15T16:42:07;68.30;;;39.25;;
4422;SDS011;2224;49.814;8.650;2023-02-15T16:44:33;59.08;;;34.20;;
4422;SDS011;2224;49.814;8.650;2023-02-15T16:46:58;59.93;;;34.77;;
4422;SDS011;2224;49.814;8.650;2023-02-15T16:49:25;63.07;;;34.97;;
4422;SDS011;2224;49.814;8.650;2023-02-15T16:51:55;77.75;;;43.08;;
4422;SDS011;2224;49.814;8.650;2023-02-15T16:54:31;58.97;;;33.40;;
4422;SDS011;2224;49.814;8.650;2023-02-15T16:56:56;71.27;;;44.90;;
4422;SDS011;2224;49.814;8.650;2023-02-15T16:59:33;73.67;;;39.97;;
4422;SDS011;2224;49.814;8.650;2023-02-15T17:02:00;64.97;;;37.88;;
4422;SDS011;2224;49.814;8.650;2023-02-15T17:04:30;66.55;;;38.30;;
4422;SDS011;2224;49.814;8.650;2023-02-15T17:07:06;73.35;;;39.40;;
4422;SDS011;2224;49.814;8.650;2023-02-15T17:09:48;71.05;;;36.80;;
4422;SDS011;2224;49.814;8.650;2023-02-15T17:12:36;70.95;;;40.30;;
4422;SDS011;2224;49.814;8.650;2023-02-15T17:20:35;78.90;;;41.30;;
4422;SDS011;2224;49.814;8.650;2023-02-15T17:23:03;94.18;;;49.90;;
4422;SDS011;2224;49.814;8.650;2023-02-15T17:25:36;90.47;;;43.80;;
4422;SDS011;2224;49.814;8.650;2023-02-15T17:28:03;91.18;;;46.63;;
4422;SDS011;2224;49.814;8.650;2023-02-15T17:30:30;82.47;;;43.55;;
4422;SDS011;2224;49.814;8.650;2023-02-15T17:32:58;82.95;;;41.28;;
4422;SDS011;2224;49.814;8.650;2023-02-15T17:35:28;75.50;;;41.80;;
4422;SDS011;2224;49.814;8.650;2023-02-15T17:38:02;86.72;;;40.72;;
4422;SDS011;2224;49.814;8.650;2023-02-15T17:40:54;69.15;;;39.17;;
4422;SDS011;2224;49.814;8.650;2023-02-15T17:43:19;80.50;;;39.20;;
4422;SDS011;2224;49.814;8.650;2023-02-15T17:45:48;66.53;;;36.63;;
4422;SDS011;2224;49.814;8.650;2023-02-15T17:48:18;75.10;;;39.53;;